Hauptseite
METAR-TAF:

METAR-TAF

Flughäfen :

Flughafen Balıkesir-Koca Seyit

Edremit, Türkei

Breite: 39-33-16N, Länge: 27-00-49E, Höhe: 15 m

Beobachtung

Neuester Wetterbericht von vor 1 Stunde und 6 Minuten, um 10:50 UTC
Wind 15 kt aus Ost, Böen bis zu 26 kt, variierte zwischen Ost/Nordost und Ost/Südost
Temperatur 20°C
Luftfeuchtigkeit 53%
Luftdruck 1019 hPa
Sichtweite 10 km oder mehr
Leicht bewölkt in der Höhe von 3500 ft
Durchbrochene Bewölkung in der Höhe von 20000 ft

METAR: LTFD 201050Z 08015G26KT 060V120 9999 FEW035 BKN200 20/10 Q1019

Zeit: 14:56 (11:56 UTC)

Prognose

Neuester Wetterbericht von vor 1 Stunde und 16 Minuten, um 10:40 UTC
Gültige Prognose vom 20 um 12 UTC bis 20 um 21 UTC
Wind 18 kt aus Ost
Sichtweite 10 km oder mehr
Leicht bewölkt in der Höhe von 3500 ft
Aufgelockert bewölkt in der Höhe von 10000 ft

TAF: LTFD 201040Z 2012/2021 08018KT 9999 FEW035 SCT100

Wetterbeobachtungen und Prognosen von mehr als 4000 Flughäfen (METAR und TAF Bericht).

Die verfügbaren Stationen werden durch gelbe und rote Markierungen auf der Karte dargestellt.

Führen Sie die Maus auf sie, um den Namen der Station zu sehen.

Darauf klicken, um die Beobachtung von Wetterbeobachtungen und Prognosen zu sehen.

Um die Karte zu ändern : klicken Sie auf den grünen Tasten mit einem schwarzen Kreuz Zum Vergrößern, auf den grünen Button mit einem Gedankenstrich zu verkleinern, oder auf die grünen Pfeile für benachbarte Karten.


METAR-TAF: